Time;durP1;ratioP1;P1;durP2;ratioP2;P2;SDS_P1;SDS_P2;PMS_P1;PMS_P2;Temp;Humidity;BMP_temperature;BMP_pressure;BME280_temperature;BME280_humidity;BME280_pressure;Samples;Min_cycle;Max_cycle;Signal;HPM_P1;HPM_P2
2022/01/18 00:02:01;;;;;;;22.65;4.50;;;8.50;99.90;;;;;;5010065;28;20539;-44
2022/01/18 00:04:27;;;;;;;21.80;4.70;;;8.50;99.90;;;;;;5010516;28;20376;-43
2022/01/18 00:06:53;;;;;;;19.70;4.55;;;8.50;99.90;;;;;;5008838;28;20460;-43
2022/01/18 00:09:22;;;;;;;18.55;4.15;;;8.60;99.90;;;;;;5010331;28;20022;-44
2022/01/18 00:11:52;;;;;;;23.27;4.75;;;8.60;99.90;;;;;;5009943;28;20038;-43
2022/01/18 00:15:15;;;;;;;30.15;5.15;;;8.50;99.90;;;;;;5009544;28;20026;-43
2022/01/18 00:17:18;;;;;;;31.25;5.18;;;8.50;99.90;;;;;;5009237;28;20038;-42
2022/01/18 00:19:53;;;;;;;17.65;4.68;;;8.50;99.90;;;;;;5009152;28;20535;-43
2022/01/18 00:22:19;;;;;;;26.55;5.25;;;8.50;99.90;;;;;;5010304;28;20030;-42
2022/01/18 00:24:45;;;;;;;20.90;4.82;;;8.50;99.90;;;;;;5010146;28;20026;-44
2022/01/18 00:27:15;;;;;;;20.10;4.32;;;8.60;99.90;;;;;;5009221;28;20537;-42
2022/01/18 00:29:53;;;;;;;20.63;4.78;;;8.60;99.90;;;;;;5009495;28;20134;-43
2022/01/18 00:34:59;;;;;;;20.45;3.75;;;8.60;99.90;;;;;;4999056;28;20402;-42
2022/01/18 00:37:32;;;;;;;23.00;4.90;;;8.60;99.90;;;;;;5009059;28;20033;-42
2022/01/18 00:39:57;;;;;;;21.02;4.65;;;8.60;99.90;;;;;;5007487;28;20073;-42
2022/01/18 00:42:23;;;;;;;28.33;4.88;;;8.60;99.90;;;;;;5008917;28;20022;-43
2022/01/18 00:44:49;;;;;;;19.30;4.03;;;8.50;99.90;;;;;;5008804;28;20424;-43
2022/01/18 00:47:15;;;;;;;17.83;4.65;;;8.50;99.90;;;;;;5009710;28;20037;-44
2022/01/18 00:49:43;;;;;;;22.60;6.22;;;8.50;99.90;;;;;;5008401;28;20049;-42
2022/01/18 00:52:09;;;;;;;22.48;4.45;;;8.50;99.90;;;;;;5009429;28;20131;-43
2022/01/18 00:54:40;;;;;;;15.38;4.32;;;8.50;99.90;;;;;;5009044;28;20425;-43
2022/01/18 00:57:06;;;;;;;29.38;5.10;;;8.50;99.90;;;;;;5008711;28;20819;-44
2022/01/18 00:59:31;;;;;;;22.08;4.07;;;8.50;99.90;;;;;;5008818;28;20073;-43
2022/01/18 01:01:57;;;;;;;22.20;4.60;;;8.50;99.90;;;;;;5008594;28;20485;-43
2022/01/18 01:04:27;;;;;;;23.10;4.60;;;8.40;99.90;;;;;;5008846;28;20120;-44
2022/01/18 01:06:52;;;;;;;17.52;3.80;;;8.40;99.90;;;;;;5009415;28;20022;-42
2022/01/18 01:09:18;;;;;;;21.70;4.38;;;8.40;99.90;;;;;;5008347;28;20040;-44
2022/01/18 01:11:44;;;;;;;15.60;4.03;;;8.40;99.90;;;;;;5008852;28;20042;-43
2022/01/18 01:14:16;;;;;;;18.20;4.50;;;8.40;99.90;;;;;;5008651;28;20055;-44
2022/01/18 01:43:30;;;;;;;22.02;4.95;;;8.30;99.90;;;;;;5008564;28;20172;-42
2022/01/18 01:45:56;;;;;;;;;;;8.30;99.90;;;;;;5008403;28;20030;-43
2022/01/18 01:48:24;;;;;;;27.45;6.57;;;8.40;99.90;;;;;;5008648;28;19913;-43
2022/01/18 01:51:03;;;;;;;17.90;5.18;;;8.30;99.90;;;;;;5007549;28;20488;-43
2022/01/18 01:53:31;;;;;;;19.27;5.80;;;8.30;99.90;;;;;;4989197;28;20022;-44
2022/01/18 01:55:56;;;;;;;19.35;5.85;;;8.30;99.90;;;;;;4998241;28;20143;-43
2022/01/18 01:58:24;;;;;;;18.45;5.50;;;8.30;99.90;;;;;;5007506;28;20026;-43
2022/01/18 02:00:53;;;;;;;23.23;7.00;;;8.30;99.90;;;;;;5008143;28;20037;-44
2022/01/18 02:03:20;;;;;;;19.13;5.72;;;8.30;99.90;;;;;;5007683;28;20501;-42
2022/01/18 02:05:46;;;;;;;24.98;6.82;;;8.30;99.90;;;;;;5006721;28;20389;-43
2022/01/18 02:08:13;;;;;;;18.05;6.50;;;8.20;99.90;;;;;;5008632;28;20025;-42
2022/01/18 02:10:40;;;;;;;15.38;5.95;;;8.20;99.90;;;;;;5007649;28;20429;-42
2022/01/18 02:13:07;;;;;;;24.52;6.68;;;8.20;99.90;;;;;;5007240;28;20026;-44
2022/01/18 02:15:38;;;;;;;23.50;7.28;;;8.20;99.90;;;;;;5007415;28;20026;-42
2022/01/18 02:23:32;;;;;;;24.88;6.88;;;8.20;99.90;;;;;;4996998;28;20060;-43
2022/01/18 02:25:58;;;;;;;33.25;6.97;;;8.20;99.90;;;;;;5007453;28;20025;-43
2022/01/18 02:28:25;;;;;;;25.08;6.97;;;8.20;99.90;;;;;;5006939;28;20401;-44
2022/01/18 02:30:52;;;;;;;20.42;6.40;;;8.20;99.90;;;;;;5007394;28;20125;-43
2022/01/18 02:33:17;;;;;;;14.48;6.50;;;8.20;99.90;;;;;;5007212;28;20024;-42
2022/01/18 02:35:45;;;;;;;19.48;7.30;;;8.20;99.90;;;;;;5007408;28;20033;-44
2022/01/18 02:38:11;;;;;;;25.58;7.22;;;8.20;99.90;;;;;;5006770;28;20022;-43
2022/01/18 02:40:36;;;;;;;24.20;6.63;;;8.20;99.90;;;;;;5007460;28;20048;-43
2022/01/18 02:45:51;;;;;;;20.13;5.68;;;8.20;99.90;;;;;;4987998;28;20586;-44
2022/01/18 02:48:17;;;;;;;22.95;6.72;;;8.20;99.90;;;;;;5003537;28;20148;-43
2022/01/18 02:50:42;;;;;;;24.85;7.13;;;8.20;99.90;;;;;;5007055;28;20365;-43
2022/01/18 02:53:08;;;;;;;31.27;7.18;;;8.20;99.90;;;;;;5007218;28;20096;-43
2022/01/18 02:55:33;;;;;;;23.23;7.20;;;8.20;99.90;;;;;;5006360;28;20053;-43
2022/01/18 02:58:05;;;;;;;23.63;6.78;;;8.20;99.90;;;;;;5006873;28;20105;-43
2022/01/18 03:00:43;;;;;;;19.77;6.57;;;8.10;99.90;;;;;;5007422;28;20629;-42
2022/01/18 03:03:16;;;;;;;23.75;5.75;;;8.20;99.90;;;;;;5006350;28;20030;-42
2022/01/18 03:05:44;;;;;;;21.65;7.30;;;8.20;99.90;;;;;;5007374;28;20053;-43
2022/01/18 03:08:11;;;;;;;28.08;6.82;;;8.20;99.90;;;;;;5009611;28;20025;-43
2022/01/18 03:10:37;;;;;;;25.77;7.28;;;8.20;99.90;;;;;;5011144;28;20037;-44
2022/01/18 03:13:04;;;;;;;29.60;8.35;;;8.20;99.90;;;;;;5011077;28;20030;-42
2022/01/18 03:15:30;;;;;;;26.95;7.47;;;8.20;99.90;;;;;;5010222;28;20022;-43
2022/01/18 03:17:55;;;;;;;31.48;7.85;;;8.20;99.90;;;;;;5010812;28;20113;-43
2022/01/18 03:20:22;;;;;;;22.80;6.25;;;8.20;99.90;;;;;;5011076;28;20077;-42
2022/01/18 03:22:50;;;;;;;23.13;7.18;;;8.30;99.90;;;;;;5008729;28;20181;-43
2022/01/18 03:25:27;;;;;;;28.30;8.32;;;8.30;99.90;;;;;;5011162;28;20511;-43
2022/01/18 03:28:04;;;;;;;27.95;8.45;;;8.30;99.90;;;;;;5010695;28;20018;-42
2022/01/18 03:30:40;;;;;;;28.95;7.75;;;8.30;99.90;;;;;;5010519;28;20022;-42
2022/01/18 03:33:16;;;;;;;31.10;7.82;;;8.30;99.90;;;;;;5010626;28;20109;-42
2022/01/18 03:35:42;;;;;;;30.20;8.18;;;8.30;99.90;;;;;;5011024;28;20029;-42
2022/01/18 03:38:10;;;;;;;28.17;7.95;;;8.30;99.90;;;;;;5010557;28;20088;-43
2022/01/18 03:40:37;;;;;;;19.73;6.95;;;8.30;99.90;;;;;;5010319;28;20029;-42
2022/01/18 03:43:05;;;;;;;25.23;6.28;;;8.30;99.90;;;;;;5010611;28;20042;-42
2022/01/18 03:45:39;;;;;;;25.90;6.07;;;8.30;99.90;;;;;;5009944;28;20044;-43
2022/01/18 03:48:07;;;;;;;15.98;5.00;;;8.30;99.90;;;;;;5010776;28;20049;-43
2022/01/18 03:50:33;;;;;;;20.05;5.97;;;8.30;99.90;;;;;;5009623;28;20663;-43
2022/01/18 03:52:59;;;;;;;23.17;6.20;;;8.20;99.90;;;;;;5010506;28;20038;-43
2022/01/18 03:55:24;;;;;;;21.65;7.20;;;8.20;99.90;;;;;;5010034;28;20045;-44
2022/01/18 03:57:50;;;;;;;29.40;7.03;;;8.10;99.90;;;;;;5009658;28;20478;-44
2022/01/18 04:00:22;;;;;;;25.63;7.88;;;8.10;99.90;;;;;;5010720;28;20543;-43
2022/01/18 04:02:48;;;;;;;22.00;6.18;;;8.00;99.90;;;;;;5009721;28;20065;-43
2022/01/18 04:05:14;;;;;;;17.25;6.60;;;8.00;99.90;;;;;;5009101;28;20497;-43
2022/01/18 04:07:40;;;;;;;18.95;5.20;;;8.00;99.90;;;;;;5010715;28;20029;-44
2022/01/18 04:10:07;;;;;;;23.65;5.50;;;8.00;99.90;;;;;;5009894;28;20396;-42
2022/01/18 04:12:34;;;;;;;18.77;5.38;;;8.00;99.90;;;;;;5009405;28;20024;-42
2022/01/18 04:15:04;;;;;;;12.98;5.07;;;8.10;99.90;;;;;;5009712;28;20072;-43
2022/01/18 04:17:46;;;;;;;16.98;5.05;;;8.00;99.90;;;;;;5009645;28;20018;-43
2022/01/18 04:25:56;;;;;;;15.23;4.18;;;8.00;99.90;;;;;;5009419;28;20088;-43
2022/01/18 04:28:39;;;;;;;12.77;4.35;;;7.90;99.90;;;;;;5010048;28;20033;-42
2022/01/18 04:31:06;;;;;;;12.82;3.80;;;7.90;99.90;;;;;;5009454;28;20095;-42
2022/01/18 04:33:33;;;;;;;15.43;4.82;;;7.90;99.90;;;;;;5009133;28;20021;-41
2022/01/18 04:35:59;;;;;;;14.82;5.45;;;7.90;99.90;;;;;;5009653;28;20554;-42
2022/01/18 04:38:25;;;;;;;10.43;4.20;;;7.90;99.90;;;;;;5009835;28;20528;-43
2022/01/18 04:40:51;;;;;;;14.02;4.45;;;7.90;99.90;;;;;;5008745;28;20032;-44
2022/01/18 04:48:47;;;;;;;14.25;4.68;;;7.90;99.90;;;;;;5008570;28;20504;-43
2022/01/18 04:51:12;;;;;;;22.40;5.47;;;7.90;99.90;;;;;;5009379;28;20062;-42
2022/01/18 04:53:50;;;;;;;22.58;6.75;;;7.90;99.90;;;;;;5009003;28;20022;-43
2022/01/18 04:56:19;;;;;;;17.63;5.50;;;7.90;99.90;;;;;;5008492;28;20086;-42
2022/01/18 04:58:44;;;;;;;19.75;6.65;;;7.90;99.90;;;;;;4998987;28;20036;-43
2022/01/18 05:01:11;;;;;;;22.50;7.50;;;7.90;99.90;;;;;;5008272;28;20101;-43
2022/01/18 05:03:37;;;;;;;13.93;4.97;;;7.80;99.90;;;;;;5008563;28;20038;-43
2022/01/18 05:06:13;;;;;;;19.67;7.32;;;7.80;99.90;;;;;;5008752;28;20072;-43
2022/01/18 05:08:39;;;;;;;18.83;6.57;;;7.70;99.90;;;;;;5005541;28;20101;-44
2022/01/18 05:11:07;;;;;;;23.02;6.97;;;7.60;99.90;;;;;;5008744;28;20034;-43
2022/01/18 05:21:34;;;;;;;14.98;4.55;;;7.50;99.90;;;;;;5008625;28;20512;-43
2022/01/18 05:24:00;;;;;;;16.35;5.35;;;7.50;99.90;;;;;;5007137;28;20057;-42
2022/01/18 05:26:28;;;;;;;17.27;5.20;;;7.40;99.90;;;;;;5008627;28;20536;-44
2022/01/18 05:28:53;;;;;;;15.30;4.80;;;7.40;99.90;;;;;;5008173;28;20030;-43
2022/01/18 05:31:19;;;;;;;12.18;4.60;;;7.30;99.90;;;;;;5008109;28;20100;-43
2022/01/18 05:33:47;;;;;;;9.07;4.07;;;7.30;99.90;;;;;;5008673;28;20014;-44
2022/01/18 05:36:13;;;;;;;10.27;3.83;;;7.30;99.90;;;;;;5008131;28;20119;-43
2022/01/18 05:38:39;;;;;;;9.90;4.20;;;7.40;99.90;;;;;;5008583;28;20057;-43
2022/01/18 05:41:07;;;;;;;8.48;3.38;;;7.40;99.90;;;;;;5008182;28;20030;-43
2022/01/18 05:43:33;;;;;;;11.20;4.15;;;7.40;99.90;;;;;;5007235;28;20500;-43
2022/01/18 05:45:58;;;;;;;10.80;4.22;;;7.40;99.90;;;;;;5008594;28;20022;-42
2022/01/18 05:48:24;;;;;;;10.02;3.90;;;7.40;99.90;;;;;;5008215;28;20018;-44
2022/01/18 05:50:51;;;;;;;14.18;4.07;;;7.50;99.90;;;;;;5007508;28;20029;-43
2022/01/18 05:53:17;;;;;;;11.68;4.07;;;7.50;99.90;;;;;;5008415;28;20028;-44
2022/01/18 05:55:42;;;;;;;11.18;4.55;;;7.50;99.90;;;;;;5007973;28;20042;-43
2022/01/18 05:58:08;;;;;;;14.27;4.22;;;7.50;99.90;;;;;;5007390;28;20044;-43
2022/01/18 06:00:34;;;;;;;11.05;4.47;;;7.60;99.90;;;;;;5008634;28;20033;-42
2022/01/18 06:03:02;;;;;;;15.48;4.57;;;7.60;99.90;;;;;;5008092;28;20038;-42
2022/01/18 06:08:13;;;;;;;17.40;5.10;;;7.70;99.90;;;;;;5008336;28;20037;-42
2022/01/18 06:10:39;;;;;;;13.02;5.72;;;7.70;99.90;;;;;;5008109;28;20014;-44
2022/01/18 06:13:07;;;;;;;14.02;6.03;;;7.70;99.90;;;;;;5007181;28;20381;-43
2022/01/18 06:15:34;;;;;;;10.55;5.03;;;7.70;99.90;;;;;;5007594;28;20493;-43
2022/01/18 06:17:59;;;;;;;14.52;5.43;;;7.80;99.90;;;;;;5007725;28;20022;-43
2022/01/18 06:20:25;;;;;;;13.60;5.03;;;7.80;99.90;;;;;;5006744;28;20436;-43
2022/01/18 06:22:51;;;;;;;13.50;4.57;;;7.80;99.90;;;;;;5007678;28;20038;-42
2022/01/18 06:25:18;;;;;;;12.40;5.45;;;7.80;99.90;;;;;;5008003;28;20119;-43
2022/01/18 06:27:43;;;;;;;17.10;5.93;;;7.80;99.90;;;;;;5007491;28;20052;-43
2022/01/18 06:30:10;;;;;;;19.08;5.57;;;7.80;99.90;;;;;;5006902;28;20472;-43
2022/01/18 06:32:39;;;;;;;18.05;6.50;;;7.80;99.90;;;;;;5006981;28;20058;-42
2022/01/18 06:35:07;;;;;;;15.25;7.10;;;7.80;99.90;;;;;;5007360;28;20076;-42
2022/01/18 06:37:33;;;;;;;17.10;7.93;;;7.80;99.90;;;;;;5007616;28;20104;-43
2022/01/18 06:40:02;;;;;;;22.33;8.02;;;7.70;99.90;;;;;;5007181;28;20100;-42
2022/01/18 06:42:27;;;;;;;18.60;7.57;;;7.70;99.90;;;;;;5006297;28;20042;-44
2022/01/18 06:44:53;;;;;;;17.17;8.15;;;7.60;99.90;;;;;;5006830;28;20025;-42
2022/01/18 06:47:19;;;;;;;17.08;7.95;;;7.60;99.90;;;;;;5007260;28;20485;-42
2022/01/18 06:49:45;;;;;;;18.52;8.27;;;7.60;99.90;;;;;;5007140;28;20491;-42
2022/01/18 06:52:10;;;;;;;16.35;8.07;;;7.50;99.90;;;;;;5007244;28;20679;-43
2022/01/18 06:54:36;;;;;;;15.30;8.20;;;7.50;99.90;;;;;;4988036;28;20026;-43
2022/01/18 06:57:02;;;;;;;19.35;8.50;;;7.50;99.90;;;;;;5006266;28;20029;-43
2022/01/18 06:59:28;;;;;;;16.25;8.77;;;7.50;99.90;;;;;;5006219;28;20034;-43
2022/01/18 07:01:53;;;;;;;18.67;8.80;;;7.60;99.90;;;;;;5005597;28;20034;-43
2022/01/18 07:04:19;;;;;;;21.08;9.63;;;7.60;99.90;;;;;;5006697;28;20424;-43
2022/01/18 07:06:45;;;;;;;17.85;8.73;;;7.60;99.90;;;;;;5006055;28;20033;-42
2022/01/18 07:09:15;;;;;;;16.60;8.75;;;7.60;99.90;;;;;;5005564;28;20030;-45
2022/01/18 07:11:42;;;;;;;19.20;7.70;;;7.60;99.90;;;;;;5006409;28;20101;-44
2022/01/18 07:14:08;;;;;;;16.25;7.88;;;7.60;99.90;;;;;;5005422;28;20034;-43
2022/01/18 07:16:33;;;;;;;19.23;8.15;;;7.60;99.90;;;;;;5005996;28;20440;-43
2022/01/18 07:18:59;;;;;;;14.38;6.07;;;7.50;99.90;;;;;;5005888;28;20037;-43
2022/01/18 07:21:24;;;;;;;15.65;6.55;;;7.40;99.90;;;;;;5006730;28;20033;-44
2022/01/18 07:24:04;;;;;;;14.10;6.50;;;7.40;99.90;;;;;;5006217;28;20057;-42
2022/01/18 07:26:30;;;;;;;15.13;5.93;;;7.40;99.90;;;;;;4999975;28;20022;-43
2022/01/18 07:28:56;;;;;;;13.93;6.47;;;7.40;99.90;;;;;;5006049;28;20030;-44
2022/01/18 07:31:22;;;;;;;16.70;7.13;;;7.40;99.90;;;;;;5006788;28;20042;-45
2022/01/18 07:33:48;;;;;;;15.07;6.28;;;7.40;99.90;;;;;;5006678;28;20033;-43
2022/01/18 07:36:14;;;;;;;17.40;6.70;;;7.40;99.90;;;;;;5006419;28;20076;-44
2022/01/18 07:38:39;;;;;;;17.52;7.32;;;7.40;99.90;;;;;;5006685;28;20109;-43
2022/01/18 07:41:05;;;;;;;18.27;7.35;;;7.40;99.90;;;;;;5006995;28;20026;-43
2022/01/18 07:43:30;;;;;;;16.27;8.20;;;7.40;99.90;;;;;;5005160;28;20033;-43
2022/01/18 07:45:56;;;;;;;14.80;7.00;;;7.40;99.90;;;;;;5006655;28;20026;-42
2022/01/18 07:48:23;;;;;;;16.10;7.35;;;7.40;99.90;;;;;;5007079;28;20477;-44
2022/01/18 07:50:51;;;;;;;15.45;7.03;;;7.40;99.90;;;;;;5006455;28;20022;-43
2022/01/18 07:53:17;;;;;;;13.43;6.88;;;7.40;99.90;;;;;;5007749;28;20030;-43
2022/01/18 07:55:43;;;;;;;15.02;7.18;;;7.40;99.90;;;;;;5006918;28;20216;-43
2022/01/18 07:58:08;;;;;;;13.38;6.90;;;7.40;99.90;;;;;;5008523;28;20133;-42
2022/01/18 08:00:34;;;;;;;11.23;6.38;;;7.30;99.90;;;;;;5009291;28;20377;-43
2022/01/18 08:02:59;;;;;;;11.57;6.55;;;7.30;99.90;;;;;;5009292;28;20037;-44
2022/01/18 08:05:25;;;;;;;17.60;7.80;;;7.30;99.90;;;;;;5008895;28;20022;-43
2022/01/18 08:07:51;;;;;;;22.30;8.82;;;7.20;99.90;;;;;;5008804;28;20112;-43
2022/01/18 08:10:18;;;;;;;20.38;8.88;;;7.20;99.90;;;;;;5009768;28;20022;-43
2022/01/18 08:12:45;;;;;;;21.98;9.05;;;7.20;99.90;;;;;;5008509;28;20033;-43
2022/01/18 08:15:18;;;;;;;44.13;9.32;;;7.20;99.90;;;;;;5009223;28;20444;-43
2022/01/18 08:17:48;;;;;;;23.65;9.60;;;7.30;99.90;;;;;;5009585;28;20017;-43
2022/01/18 08:20:14;;;;;;;16.90;9.02;;;7.20;99.90;;;;;;5008681;28;20422;-44
2022/01/18 08:22:42;;;;;;;16.40;8.77;;;7.20;99.90;;;;;;5009260;28;20037;-43
2022/01/18 08:25:08;;;;;;;19.20;8.90;;;7.20;99.90;;;;;;5008309;28;20072;-43
2022/01/18 08:27:33;;;;;;;22.63;9.02;;;7.20;99.90;;;;;;5008329;28;20036;-43
2022/01/18 08:29:59;;;;;;;16.98;8.27;;;7.20;99.90;;;;;;5007528;28;20026;-44
2022/01/18 08:32:24;;;;;;;18.50;8.10;;;7.20;99.90;;;;;;5000854;28;20452;-43
2022/01/18 08:34:50;;;;;;;26.73;8.57;;;7.20;99.90;;;;;;5005072;28;20105;-43
2022/01/18 08:37:16;;;;;;;32.60;8.50;;;7.20;99.90;;;;;;5008856;28;20037;-43
2022/01/18 08:39:41;;;;;;;15.55;8.65;;;7.20;99.90;;;;;;5007513;28;20779;-44
2022/01/18 08:42:08;;;;;;;15.82;7.07;;;7.20;99.90;;;;;;5008971;28;20119;-43
2022/01/18 08:44:35;;;;;;;13.70;7.97;;;7.20;99.90;;;;;;5008451;28;20021;-43
2022/01/18 08:47:00;;;;;;;13.05;6.90;;;7.20;99.90;;;;;;5008118;28;20640;-43
2022/01/18 08:49:26;;;;;;;11.32;6.40;;;7.20;99.90;;;;;;5008409;28;20013;-44
2022/01/18 08:51:51;;;;;;;16.30;7.45;;;7.10;99.90;;;;;;5008587;28;20163;-43
2022/01/18 08:54:17;;;;;;;13.00;6.40;;;7.10;99.90;;;;;;5008059;28;20029;-43
2022/01/18 08:56:42;;;;;;;18.60;6.68;;;7.10;99.90;;;;;;5008266;28;20505;-43
2022/01/18 08:59:08;;;;;;;17.10;6.25;;;7.10;99.90;;;;;;5008072;28;20025;-43
2022/01/18 09:01:33;;;;;;;18.77;5.90;;;7.10;99.90;;;;;;5007289;28;20032;-42
2022/01/18 09:04:01;;;;;;;13.93;5.57;;;7.00;99.90;;;;;;5008467;28;20436;-44
2022/01/18 09:06:28;;;;;;;23.27;5.97;;;7.00;99.90;;;;;;5006795;28;20041;-43
2022/01/18 09:08:57;;;;;;;21.35;5.55;;;7.00;99.90;;;;;;5007320;28;20026;-44
2022/01/18 09:11:24;;;;;;;15.68;5.80;;;7.00;99.90;;;;;;5007677;28;20037;-43
2022/01/18 09:13:52;;;;;;;12.02;5.28;;;6.90;99.90;;;;;;5006796;28;20396;-43
2022/01/18 09:16:19;;;;;;;12.80;6.10;;;6.90;99.90;;;;;;5007216;28;20038;-43
2022/01/18 09:18:46;;;;;;;18.42;6.15;;;6.90;99.90;;;;;;5008480;28;20025;-43
2022/01/18 09:21:11;;;;;;;18.42;5.55;;;6.90;99.90;;;;;;5007571;28;20556;-43
2022/01/18 09:23:39;;;;;;;13.98;5.05;;;7.00;99.90;;;;;;5007682;28;20033;-43
2022/01/18 09:26:05;;;;;;;26.50;5.78;;;7.00;99.90;;;;;;5007670;28;20033;-43
2022/01/18 09:28:31;;;;;;;14.20;4.88;;;7.00;99.90;;;;;;5007210;28;20473;-43
2022/01/18 09:30:56;;;;;;;20.20;5.22;;;7.00;99.90;;;;;;5007642;28;20036;-42
2022/01/18 09:33:22;;;;;;;16.10;5.72;;;7.00;99.90;;;;;;5007587;28;20026;-43
2022/01/18 09:35:50;;;;;;;13.27;4.70;;;7.00;99.90;;;;;;5007156;28;20026;-43
2022/01/18 09:38:16;;;;;;;8.45;4.68;;;7.00;99.90;;;;;;5007739;28;20109;-43
2022/01/18 09:40:44;;;;;;;13.23;5.70;;;7.00;99.90;;;;;;5007646;28;20768;-43
2022/01/18 09:43:13;;;;;;;16.80;4.82;;;7.00;99.90;;;;;;5006841;28;20030;-43
2022/01/18 09:45:41;;;;;;;24.92;4.85;;;6.90;99.90;;;;;;5007485;28;20072;-43
2022/01/18 09:48:08;;;;;;;32.55;5.22;;;6.90;99.90;;;;;;5007196;28;20030;-42
2022/01/18 09:50:37;;;;;;;27.88;5.30;;;6.90;99.90;;;;;;5006878;28;20029;-43
2022/01/18 09:53:06;;;;;;;16.05;5.47;;;7.00;99.90;;;;;;5007215;28;20508;-43
2022/01/18 09:55:33;;;;;;;14.43;5.05;;;7.00;99.90;;;;;;5007212;28;20042;-44
2022/01/18 09:58:01;;;;;;;18.65;5.20;;;7.10;99.90;;;;;;5006037;28;20022;-42
2022/01/18 10:00:29;;;;;;;18.67;6.32;;;7.10;99.90;;;;;;5007378;28;20033;-43
2022/01/18 10:02:55;;;;;;;20.48;6.10;;;7.10;99.90;;;;;;5006803;28;20564;-42
2022/01/18 10:05:27;;;;;;;12.38;6.35;;;7.20;99.90;;;;;;5006995;28;20030;-43
2022/01/18 10:08:10;;;;;;;14.77;5.40;;;7.20;99.90;;;;;;5006743;28;20034;-43
2022/01/18 10:10:53;;;;;;;13.30;5.65;;;7.10;99.90;;;;;;4996792;28;20026;-43
2022/01/18 10:13:28;;;;;;;9.88;4.88;;;7.10;99.90;;;;;;5007554;28;20037;-43
2022/01/18 10:15:58;;;;;;;18.25;5.40;;;7.10;99.90;;;;;;5007362;28;20021;-43
2022/01/18 10:18:34;;;;;;;7.70;5.47;;;7.10;99.90;;;;;;5004878;28;20033;-43
2022/01/18 10:21:00;;;;;;;11.43;6.07;;;7.10;99.90;;;;;;5006610;28;20036;-44
2022/01/18 10:23:26;;;;;;;18.35;5.90;;;7.10;99.90;;;;;;5006393;28;20504;-43
2022/01/18 10:25:53;;;;;;;9.77;5.38;;;7.10;99.90;;;;;;5006842;28;20030;-43
2022/01/18 10:28:32;;;;;;;17.38;6.63;;;7.10;99.90;;;;;;5007363;28;20107;-44
2022/01/18 10:31:04;;;;;;;15.38;6.18;;;7.20;99.90;;;;;;5007385;28;20113;-43
2022/01/18 10:33:36;;;;;;;17.42;5.82;;;7.20;99.90;;;;;;5005452;28;20080;-42
2022/01/18 10:36:14;;;;;;;22.25;6.15;;;7.20;99.90;;;;;;5006911;28;20061;-44
2022/01/18 10:38:44;;;;;;;8.88;4.53;;;7.20;99.90;;;;;;5005763;28;20029;-43
2022/01/18 10:41:27;;;;;;;11.50;4.65;;;7.20;99.90;;;;;;5007295;28;20669;-42
2022/01/18 10:44:02;;;;;;;;;;;7.20;99.90;;;;;;5007444;28;20473;-43
2022/01/18 10:46:34;;;;;;;12.13;4.57;;;7.20;99.90;;;;;;5006638;28;19952;-44
2022/01/18 10:49:00;;;;;;;5.78;3.92;;;7.20;99.90;;;;;;5007200;28;20604;-44
2022/01/18 10:51:27;;;;;;;14.15;4.57;;;7.10;99.90;;;;;;5007069;28;20022;-43
2022/01/18 10:54:00;;;;;;;13.88;5.00;;;7.10;99.90;;;;;;5006409;28;20014;-44
2022/01/18 10:56:41;;;;;;;12.73;6.78;;;7.10;99.90;;;;;;5007001;28;20529;-44
2022/01/18 10:59:08;;;;;;;15.80;6.70;;;7.10;99.90;;;;;;5006365;28;20030;-43
2022/01/18 11:01:33;;;;;;;9.70;5.75;;;7.10;99.90;;;;;;5006268;28;20115;-44
2022/01/18 11:04:16;;;;;;;16.83;5.35;;;7.10;99.90;;;;;;5007164;28;20033;-42
2022/01/18 11:06:59;;;;;;;11.77;4.93;;;7.10;99.90;;;;;;5006719;28;20382;-42
2022/01/18 11:09:24;;;;;;;9.85;4.38;;;7.10;99.90;;;;;;5006673;28;20535;-43
2022/01/18 11:11:50;;;;;;;5.72;3.97;;;7.20;99.90;;;;;;5006935;28;20525;-43
2022/01/18 11:14:19;;;;;;;7.15;4.18;;;7.10;99.90;;;;;;5006822;28;20018;-42
2022/01/18 11:16:46;;;;;;;5.95;3.90;;;7.10;99.90;;;;;;5006924;28;20022;-41
2022/01/18 11:21:50;;;;;;;10.48;4.70;;;7.10;99.90;;;;;;5006515;28;20038;-42
2022/01/18 11:24:18;;;;;;;8.35;4.38;;;7.10;99.90;;;;;;5006772;28;20041;-43
2022/01/18 11:26:45;;;;;;;6.47;4.10;;;7.10;99.90;;;;;;5006880;28;20030;-43
2022/01/18 11:29:17;;;;;;;7.28;4.65;;;7.20;99.90;;;;;;5008418;28;20037;-42
2022/01/18 11:31:47;;;;;;;12.32;4.78;;;7.20;99.90;;;;;;5010561;28;20389;-43
2022/01/18 11:34:29;;;;;;;10.00;4.88;;;7.30;99.90;;;;;;5010814;28;20030;-44
2022/01/18 11:37:06;;;;;;;11.60;5.30;;;7.30;99.90;;;;;;5010155;28;20376;-43
2022/01/18 11:39:32;;;;;;;18.10;5.65;;;7.40;99.90;;;;;;5010593;28;20037;-44
2022/01/18 11:42:13;;;;;;;9.10;5.97;;;7.40;99.90;;;;;;5009861;28;20029;-44
2022/01/18 11:44:39;;;;;;;8.73;5.18;;;7.40;99.90;;;;;;5010968;28;20026;-43
2022/01/18 11:47:06;;;;;;;8.18;4.63;;;7.40;99.90;;;;;;5009921;28;20083;-42
2022/01/18 11:49:33;;;;;;;12.65;5.80;;;7.50;99.90;;;;;;5009384;28;20037;-43
2022/01/18 11:52:10;;;;;;;11.98;5.80;;;7.50;99.90;;;;;;5010725;28;20033;-43
2022/01/18 11:54:55;;;;;;;9.20;5.00;;;7.50;99.90;;;;;;5010532;28;20481;-43
2022/01/18 11:57:24;;;;;;;16.20;5.88;;;7.50;99.90;;;;;;5007171;28;20054;-43
2022/01/18 11:59:54;;;;;;;10.35;5.05;;;7.50;99.90;;;;;;5010158;28;20025;-42
2022/01/18 12:02:29;;;;;;;13.05;6.57;;;7.40;99.90;;;;;;5009881;28;20053;-44
2022/01/18 12:04:57;;;;;;;12.77;5.70;;;7.40;99.90;;;;;;5009933;28;20026;-44
2022/01/18 12:07:47;;;;;;;8.85;5.65;;;7.40;99.90;;;;;;5009851;28;20422;-44
2022/01/18 12:10:42;;;;;;;11.10;5.85;;;7.40;99.90;;;;;;5009535;28;20034;-43
2022/01/18 12:13:11;;;;;;;11.05;6.03;;;7.40;99.90;;;;;;5009069;28;20037;-43
2022/01/18 12:15:38;;;;;;;12.30;6.40;;;7.40;99.90;;;;;;5010040;28;20025;-44
2022/01/18 12:18:13;;;;;;;10.88;6.70;;;7.50;99.90;;;;;;5009393;28;20042;-44
2022/01/18 12:20:45;;;;;;;13.70;6.43;;;7.50;99.90;;;;;;5009555;28;20101;-44
2022/01/18 12:23:17;;;;;;;12.63;6.28;;;7.50;99.90;;;;;;5007188;28;20045;-44
2022/01/18 12:26:09;;;;;;;11.20;6.70;;;7.50;99.90;;;;;;5006997;28;20065;-42
2022/01/18 12:36:56;;;;;;;10.45;6.35;;;7.50;99.90;;;;;;5009309;28;20032;-43
2022/01/18 12:39:22;;;;;;;13.90;7.13;;;7.50;99.90;;;;;;5008294;28;20113;-44
2022/01/18 12:41:54;;;;;;;14.65;6.70;;;7.50;99.90;;;;;;5009377;28;20108;-42
2022/01/18 12:44:21;;;;;;;14.20;7.20;;;7.60;99.90;;;;;;4999544;28;20065;-43
2022/01/18 12:46:53;;;;;;;16.58;7.43;;;7.60;99.90;;;;;;4995518;28;20639;-43
2022/01/18 12:49:19;;;;;;;13.43;6.28;;;7.70;99.90;;;;;;5009388;28;20271;-43
2022/01/18 12:51:45;;;;;;;12.75;6.43;;;7.70;99.90;;;;;;5008446;28;20500;-44
2022/01/18 12:54:11;;;;;;;13.60;6.53;;;7.70;99.90;;;;;;5009062;28;20022;-42
2022/01/18 12:56:36;;;;;;;20.52;7.80;;;7.70;99.90;;;;;;5009215;28;20148;-43
2022/01/18 12:59:04;;;;;;;16.33;8.15;;;7.80;99.90;;;;;;5008634;28;20038;-42
2022/01/18 13:01:31;;;;;;;15.20;8.40;;;7.80;99.90;;;;;;5006905;28;20030;-42
2022/01/18 13:03:57;;;;;;;11.10;6.07;;;7.80;99.90;;;;;;5009476;28;20033;-44
2022/01/18 13:06:25;;;;;;;20.17;8.38;;;7.90;99.90;;;;;;5008514;28;20030;-44
2022/01/18 13:09:03;;;;;;;13.60;7.00;;;7.90;99.90;;;;;;5008869;28;20037;-44
2022/01/18 13:11:38;;;;;;;14.45;8.05;;;7.90;99.90;;;;;;4989722;28;20022;-43
2022/01/18 13:14:09;;;;;;;15.50;7.13;;;8.00;99.90;;;;;;5003570;28;20033;-44
2022/01/18 13:27:16;;;;;;;19.15;8.70;;;8.20;99.90;;;;;;5008253;28;20033;-43
2022/01/18 13:29:44;;;;;;;16.15;7.70;;;8.20;99.90;;;;;;5009073;28;20034;-43
2022/01/18 13:32:18;;;;;;;21.15;9.25;;;8.30;99.90;;;;;;4989099;28;20046;-43
2022/01/18 13:34:47;;;;;;;17.55;8.80;;;8.30;99.90;;;;;;5003031;28;20060;-44
2022/01/18 13:37:16;;;;;;;22.60;9.55;;;8.30;99.90;;;;;;5008825;28;20042;-44
2022/01/18 13:39:47;;;;;;;18.65;9.02;;;8.30;99.90;;;;;;5008225;28;20105;-44
2022/01/18 13:42:15;;;;;;;17.17;7.68;;;8.40;99.90;;;;;;5009716;28;20030;-43
2022/01/18 13:45:12;;;;;;;18.95;8.35;;;8.40;99.90;;;;;;5008305;28;20048;-44
2022/01/18 13:47:47;;;;;;;18.27;8.43;;;8.50;99.90;;;;;;5008438;28;20080;-44
2022/01/18 13:50:32;;;;;;;16.90;8.13;;;8.50;99.90;;;;;;5007735;28;20036;-44
2022/01/18 13:53:02;;;;;;;14.50;6.57;;;8.50;99.90;;;;;;4988819;28;20077;-44
2022/01/18 13:55:29;;;;;;;19.10;8.15;;;8.50;99.90;;;;;;5003000;28;20057;-43
2022/01/18 13:57:57;;;;;;;18.85;7.88;;;8.50;99.90;;;;;;5008360;28;20477;-43
2022/01/18 14:00:28;;;;;;;14.55;7.00;;;8.50;99.90;;;;;;5007691;28;20033;-44
2022/01/18 14:02:55;;;;;;;24.65;9.00;;;8.50;99.90;;;;;;5007122;28;20046;-43
2022/01/18 14:05:23;;;;;;;17.00;6.53;;;8.50;99.90;;;;;;5008606;28;20028;-44
2022/01/18 14:07:50;;;;;;;17.65;6.90;;;8.40;99.90;;;;;;5007844;28;20037;-44
2022/01/18 14:10:21;;;;;;;13.27;5.80;;;8.40;99.90;;;;;;5007303;28;20026;-43
2022/01/18 14:12:47;;;;;;;19.92;7.50;;;8.50;99.90;;;;;;5007913;28;20026;-43
2022/01/18 14:15:15;;;;;;;17.65;7.22;;;8.50;99.90;;;;;;5007453;28;20033;-44
2022/01/18 14:17:40;;;;;;;18.25;7.30;;;8.50;99.90;;;;;;5007508;28;20176;-42